Time;durP1;ratioP1;P1;durP2;ratioP2;P2;SDS_P1;SDS_P2;PMS_P1;PMS_P2;Temp;Humidity;BMP_temperature;BMP_pressure;BME280_temperature;BME280_humidity;BME280_pressure;Samples;Min_cycle;Max_cycle;Signal;HPM_P1;HPM_P2
2024/04/14 00:01:22;;;;;;;3.77;2.17;;;16.90;99.90;;;;;;5270916;27;20519;-61
2024/04/14 00:03:58;;;;;;;3.20;2.30;;;17.00;99.90;;;;;;5271860;27;21008;-63
2024/04/14 00:06:25;;;;;;;3.13;1.90;;;17.00;99.90;;;;;;5273073;27;20472;-58
2024/04/14 00:08:51;;;;;;;2.23;2.03;;;16.90;99.90;;;;;;5273420;27;20871;-60
2024/04/14 00:11:18;;;;;;;4.60;2.70;;;17.00;99.90;;;;;;5275034;27;20515;-58
2024/04/14 00:13:44;;;;;;;3.10;2.13;;;17.10;99.90;;;;;;5269194;27;21060;-58
2024/04/14 00:16:12;;;;;;;2.70;2.20;;;17.10;99.90;;;;;;5270000;27;20539;-60
2024/04/14 00:18:38;;;;;;;2.10;2.00;;;17.10;99.90;;;;;;5270373;27;20512;-55
2024/04/14 00:21:04;;;;;;;2.17;1.90;;;17.00;99.90;;;;;;5273399;27;20797;-60
2024/04/14 00:23:30;;;;;;;2.10;1.93;;;16.90;99.90;;;;;;5274546;27;20227;-60
2024/04/14 00:25:56;;;;;;;1.90;1.80;;;16.90;99.90;;;;;;5271852;27;20586;-60
2024/04/14 00:28:23;;;;;;;2.20;2.03;;;16.90;99.90;;;;;;5274156;27;20524;-59
2024/04/14 00:30:49;;;;;;;3.07;2.10;;;16.90;99.90;;;;;;5252220;27;20480;-60
2024/04/14 00:33:15;;;;;;;3.03;2.00;;;16.80;99.90;;;;;;5258747;27;20531;-61
2024/04/14 00:35:44;;;;;;;2.80;1.90;;;16.80;99.90;;;;;;5249155;27;20548;-59
2024/04/14 00:38:10;;;;;;;4.90;1.87;;;16.80;99.90;;;;;;5248826;27;20283;-63
2024/04/14 00:40:36;;;;;;;2.43;2.07;;;16.70;99.90;;;;;;5250071;27;20536;-57
2024/04/14 00:43:02;;;;;;;2.80;2.13;;;16.70;99.90;;;;;;5258599;27;20514;-61
2024/04/14 00:45:28;;;;;;;4.30;2.33;;;16.70;99.90;;;;;;5249128;27;20453;-61
2024/04/14 00:47:55;;;;;;;3.37;2.17;;;16.70;99.90;;;;;;5242463;27;20467;-59
2024/04/14 00:50:21;;;;;;;2.43;2.23;;;16.70;99.90;;;;;;5256234;27;20541;-61
2024/04/14 00:52:48;;;;;;;2.13;1.83;;;16.70;99.90;;;;;;5266994;27;20517;-58
2024/04/14 00:55:18;;;;;;;2.20;2.10;;;16.70;99.90;;;;;;5265790;27;20601;-57
2024/04/14 00:57:45;;;;;;;1.90;1.80;;;16.70;99.90;;;;;;5259386;27;20470;-58
2024/04/14 01:00:12;;;;;;;2.00;1.80;;;16.70;99.90;;;;;;5271530;27;20459;-55
2024/04/14 01:02:38;;;;;;;3.23;2.27;;;16.70;99.90;;;;;;5261012;27;20960;-61
2024/04/14 01:05:04;;;;;;;4.50;3.27;;;16.70;99.90;;;;;;5270434;27;20609;-60
2024/04/14 01:07:32;;;;;;;3.07;2.77;;;16.60;99.90;;;;;;5267037;27;20627;-59
2024/04/14 01:10:04;;;;;;;2.53;2.33;;;16.60;99.90;;;;;;5272902;27;21268;-58
2024/04/14 01:12:30;;;;;;;6.20;2.90;;;16.60;99.90;;;;;;5264588;27;20466;-58
2024/04/14 01:14:57;;;;;;;2.93;2.63;;;16.60;99.90;;;;;;5264506;27;20519;-58
2024/04/14 01:17:23;;;;;;;2.77;2.57;;;16.60;99.90;;;;;;5253911;27;20229;-60
2024/04/14 01:19:49;;;;;;;3.83;2.50;;;16.60;99.90;;;;;;5255681;27;20639;-59
2024/04/14 01:22:15;;;;;;;3.10;2.20;;;16.60;99.90;;;;;;5267095;27;20504;-59
2024/04/14 01:24:41;;;;;;;6.33;2.70;;;16.50;99.90;;;;;;5261290;27;20588;-60
2024/04/14 01:27:07;;;;;;;2.50;2.10;;;16.50;99.90;;;;;;5279195;21;20640;-59
2024/04/14 01:29:32;;;;;;;2.50;2.23;;;16.50;99.90;;;;;;5273581;27;20470;-59
2024/04/14 01:31:58;;;;;;;2.50;2.30;;;16.50;99.90;;;;;;5273940;27;20283;-58
2024/04/14 01:34:23;;;;;;;3.47;1.93;;;16.50;99.90;;;;;;5274246;27;20286;-60
2024/04/14 01:36:49;;;;;;;4.07;2.50;;;16.50;99.90;;;;;;5274118;27;20329;-58
2024/04/14 01:39:14;;;;;;;2.80;2.20;;;16.50;99.90;;;;;;5269847;27;20225;-59
2024/04/14 01:41:40;;;;;;;2.00;1.87;;;16.50;99.90;;;;;;5271831;27;20709;-58
2024/04/14 01:44:06;;;;;;;2.43;2.23;;;16.50;99.90;;;;;;5246609;27;20972;-59
2024/04/14 01:46:31;;;;;;;2.90;2.37;;;16.50;99.90;;;;;;5257489;27;20228;-59
2024/04/14 01:48:57;;;;;;;3.80;2.23;;;16.50;99.90;;;;;;5256437;27;20345;-59
2024/04/14 01:51:23;;;;;;;3.27;2.43;;;16.40;99.90;;;;;;5254678;27;20803;-59
2024/04/14 01:53:48;;;;;;;4.03;2.23;;;16.40;99.90;;;;;;5271666;27;20265;-56
2024/04/14 01:56:14;;;;;;;4.00;2.10;;;16.40;99.90;;;;;;5264900;27;20240;-58
2024/04/14 01:58:39;;;;;;;2.10;1.90;;;16.40;99.90;;;;;;5271861;27;20264;-58
2024/04/14 02:01:05;;;;;;;4.33;2.00;;;16.40;99.90;;;;;;5264618;27;20232;-58
2024/04/14 02:03:32;;;;;;;2.93;2.73;;;16.40;99.90;;;;;;5261231;27;20227;-56
2024/04/14 02:05:59;;;;;;;2.50;2.10;;;16.40;99.90;;;;;;5261258;27;20279;-59
2024/04/14 02:08:25;;;;;;;3.60;2.50;;;16.40;99.90;;;;;;5251935;27;21022;-58
2024/04/14 02:10:51;;;;;;;3.10;1.93;;;16.40;99.90;;;;;;5249901;27;20471;-59
2024/04/14 02:13:16;;;;;;;2.20;2.00;;;16.40;99.90;;;;;;5253182;27;21059;-58
2024/04/14 02:15:42;;;;;;;3.27;2.17;;;16.50;99.90;;;;;;5262098;27;20231;-59
2024/04/14 02:18:07;;;;;;;2.43;2.23;;;16.50;99.90;;;;;;5261412;27;20259;-59
2024/04/14 02:20:33;;;;;;;2.70;2.27;;;16.40;99.90;;;;;;5251981;27;20255;-60
2024/04/14 02:22:59;;;;;;;3.27;2.13;;;16.50;99.90;;;;;;5265155;27;20228;-60
2024/04/14 02:25:24;;;;;;;3.07;2.43;;;16.60;99.90;;;;;;5253333;27;20231;-60
2024/04/14 02:27:50;;;;;;;2.67;2.20;;;16.60;99.90;;;;;;5270313;27;20238;-59
2024/04/14 02:30:15;;;;;;;2.60;2.37;;;16.60;99.90;;;;;;5268861;27;20688;-60
2024/04/14 02:32:41;;;;;;;2.83;2.23;;;16.80;99.90;;;;;;5269781;27;20627;-58
2024/04/14 02:35:07;;;;;;;3.37;2.10;;;16.70;99.90;;;;;;5272127;27;20231;-57
2024/04/14 02:37:32;;;;;;;2.30;1.90;;;16.80;99.90;;;;;;5272807;27;20310;-60
2024/04/14 02:39:58;;;;;;;2.73;2.53;;;16.70;99.90;;;;;;5273046;27;20566;-59
2024/04/14 02:42:24;;;;;;;2.50;2.30;;;16.80;99.90;;;;;;5265448;27;20470;-60
2024/04/14 02:44:49;;;;;;;6.30;2.60;;;16.90;99.90;;;;;;5255799;27;20607;-59
2024/04/14 02:47:15;;;;;;;2.93;2.43;;;17.00;99.90;;;;;;5255951;27;20232;-60
2024/04/14 02:49:41;;;;;;;2.30;2.10;;;17.10;99.90;;;;;;5250485;27;20751;-57
2024/04/14 02:52:06;;;;;;;3.27;2.50;;;17.20;99.90;;;;;;5261741;27;20235;-57
2024/04/14 02:54:32;;;;;;;3.10;2.80;;;17.20;99.90;;;;;;5266822;27;20267;-59
2024/04/14 02:56:58;;;;;;;4.30;2.90;;;17.20;99.90;;;;;;5269107;27;20236;-59
2024/04/14 02:59:23;;;;;;;3.80;2.50;;;17.20;99.90;;;;;;5272119;27;20278;-60
2024/04/14 03:01:49;;;;;;;2.67;2.33;;;17.30;99.90;;;;;;5272824;27;20231;-59
2024/04/14 03:04:14;;;;;;;3.53;2.87;;;17.30;99.90;;;;;;5272720;27;20306;-60
2024/04/14 03:06:40;;;;;;;5.97;2.60;;;17.40;99.90;;;;;;5272964;27;20227;-57
2024/04/14 03:09:06;;;;;;;2.87;2.33;;;17.40;99.90;;;;;;5265711;27;20217;-58
2024/04/14 03:11:31;;;;;;;5.50;2.80;;;17.20;99.90;;;;;;5262231;27;20780;-59
2024/04/14 03:13:57;;;;;;;3.60;2.50;;;17.20;99.90;;;;;;5269269;27;20231;-59
2024/04/14 03:16:22;;;;;;;3.07;2.67;;;17.20;99.90;;;;;;5254718;27;20297;-58
2024/04/14 03:18:48;;;;;;;5.87;3.63;;;17.20;99.90;;;;;;5258004;27;20278;-58
2024/04/14 03:21:14;;;;;;;3.10;2.80;;;17.20;99.90;;;;;;5269699;27;20414;-57
2024/04/14 03:23:40;;;;;;;3.03;2.73;;;17.10;99.90;;;;;;5270073;27;20737;-59
2024/04/14 03:26:05;;;;;;;4.07;2.80;;;17.10;99.90;;;;;;5255116;27;20323;-58
2024/04/14 03:28:32;;;;;;;3.80;3.30;;;17.10;99.90;;;;;;5269412;27;20587;-57
2024/04/14 03:31:01;;;;;;;4.10;3.00;;;17.10;99.90;;;;;;5268044;27;20279;-59
2024/04/14 03:33:29;;;;;;;3.90;3.10;;;17.10;99.90;;;;;;5255750;27;20571;-62
2024/04/14 03:36:02;;;;;;;2.77;2.53;;;17.10;99.90;;;;;;5269016;27;20464;-58
2024/04/14 03:38:28;;;;;;;5.93;3.23;;;17.10;99.90;;;;;;5259662;27;20481;-59
2024/04/14 03:40:54;;;;;;;4.90;3.30;;;17.10;99.90;;;;;;5257578;27;21058;-60
2024/04/14 03:43:19;;;;;;;2.77;2.57;;;17.10;99.90;;;;;;5264675;27;20470;-59
2024/04/14 03:45:45;;;;;;;3.60;2.70;;;17.10;99.90;;;;;;5261990;27;20591;-58
2024/04/14 03:48:11;;;;;;;3.97;3.40;;;17.10;99.90;;;;;;5266636;27;20280;-60
2024/04/14 03:50:37;;;;;;;3.47;3.17;;;17.10;99.90;;;;;;5269292;27;20636;-57
2024/04/14 03:53:02;;;;;;;3.87;3.23;;;17.00;99.90;;;;;;5268702;27;20734;-55
2024/04/14 03:55:28;;;;;;;3.70;3.40;;;17.10;99.90;;;;;;5243799;27;20571;-60
2024/04/14 03:57:53;;;;;;;5.17;4.10;;;17.00;99.90;;;;;;5261664;27;20232;-60
2024/04/14 04:00:19;;;;;;;4.57;3.67;;;17.00;99.90;;;;;;5224731;27;20268;-59
2024/04/14 04:02:45;;;;;;;4.57;3.30;;;16.90;99.90;;;;;;5224921;27;20254;-57
2024/04/14 04:05:10;;;;;;;3.43;3.17;;;16.90;99.90;;;;;;5237100;27;20877;-58
2024/04/14 04:07:36;;;;;;;8.23;4.03;;;16.90;99.90;;;;;;5267825;27;20229;-59
2024/04/14 04:10:01;;;;;;;3.40;3.10;;;16.90;99.90;;;;;;5269610;27;20744;-58
2024/04/14 04:12:27;;;;;;;4.30;3.47;;;16.90;99.90;;;;;;5269628;27;20419;-58
2024/04/14 04:14:52;;;;;;;3.50;3.20;;;16.80;99.90;;;;;;5265101;27;20336;-59
2024/04/14 04:17:18;;;;;;;4.90;3.30;;;16.70;99.90;;;;;;5263911;27;20248;-57
2024/04/14 04:19:44;;;;;;;5.07;3.50;;;16.70;99.90;;;;;;5264572;27;20275;-58
2024/04/14 04:22:10;;;;;;;3.33;3.03;;;16.70;99.90;;;;;;5260518;27;20478;-58
2024/04/14 04:24:35;;;;;;;4.67;4.17;;;16.60;99.90;;;;;;5265633;27;20307;-59
2024/04/14 04:27:01;;;;;;;4.07;3.70;;;16.60;99.90;;;;;;5270294;27;20230;-58
2024/04/14 04:29:28;;;;;;;5.17;3.67;;;16.60;99.90;;;;;;5269363;27;20240;-57
2024/04/14 04:31:55;;;;;;;4.40;3.33;;;16.60;99.90;;;;;;5271502;27;20290;-58
2024/04/14 04:34:21;;;;;;;5.97;4.20;;;16.60;99.90;;;;;;5271282;27;20861;-58
2024/04/14 04:36:48;;;;;;;4.10;3.70;;;16.60;99.90;;;;;;5272880;27;20462;-59
2024/04/14 04:39:14;;;;;;;4.40;4.00;;;16.50;99.90;;;;;;5274502;27;20468;-55
2024/04/14 04:41:40;;;;;;;4.90;4.00;;;16.50;99.90;;;;;;5266655;27;20527;-59
2024/04/14 04:44:05;;;;;;;4.20;3.57;;;16.50;99.90;;;;;;5271790;27;20230;-57
2024/04/14 04:46:31;;;;;;;4.97;3.10;;;16.50;99.90;;;;;;5274177;27;21023;-59
2024/04/14 04:48:57;;;;;;;11.50;3.43;;;16.50;99.90;;;;;;5274341;27;20276;-58
2024/04/14 04:51:23;;;;;;;4.17;3.43;;;16.50;99.90;;;;;;5253255;27;20291;-58
2024/04/14 04:53:48;;;;;;;5.40;3.67;;;16.40;99.90;;;;;;5256983;27;20381;-59
2024/04/14 04:56:14;;;;;;;5.70;3.37;;;16.40;99.90;;;;;;5267422;27;20485;-58
2024/04/14 04:58:40;;;;;;;3.37;2.97;;;16.40;99.90;;;;;;5272805;27;20232;-58
2024/04/14 05:01:05;;;;;;;5.20;2.87;;;16.40;99.90;;;;;;5273172;27;20352;-59
2024/04/14 05:03:31;;;;;;;4.20;2.87;;;16.40;99.90;;;;;;5252714;27;20251;-59
2024/04/14 05:05:58;;;;;;;4.63;3.00;;;16.40;99.90;;;;;;5266126;27;20272;-58
2024/04/14 05:08:25;;;;;;;2.67;2.40;;;16.30;99.90;;;;;;5270972;27;20275;-60
2024/04/14 05:10:54;;;;;;;5.90;2.60;;;16.30;99.90;;;;;;5272865;27;20462;-58
2024/04/14 05:13:20;;;;;;;4.13;2.40;;;16.30;99.90;;;;;;5273808;27;20525;-59
2024/04/14 05:15:46;;;;;;;3.23;2.50;;;16.30;99.90;;;;;;5260505;27;20460;-60
2024/04/14 05:18:13;;;;;;;6.23;3.13;;;16.30;99.90;;;;;;5259186;27;20795;-59
2024/04/14 05:20:39;;;;;;;3.10;2.33;;;16.20;99.90;;;;;;5250787;27;20534;-58
2024/04/14 05:23:05;;;;;;;2.13;1.93;;;16.20;99.90;;;;;;5258096;27;20475;-60
2024/04/14 05:25:31;;;;;;;6.40;2.67;;;16.20;99.90;;;;;;5270330;27;20235;-58
2024/04/14 05:27:57;;;;;;;5.37;2.50;;;16.30;99.90;;;;;;5258944;27;20906;-58
2024/04/14 05:30:22;;;;;;;4.67;2.70;;;16.30;99.90;;;;;;5260636;27;20414;-60
2024/04/14 05:32:50;;;;;;;3.30;2.17;;;16.30;99.90;;;;;;5268310;27;21122;-60
2024/04/14 05:35:16;;;;;;;2.30;2.10;;;16.20;99.90;;;;;;5258883;27;20618;-59
2024/04/14 05:37:41;;;;;;;5.30;2.33;;;16.30;99.90;;;;;;5251321;27;20473;-60
2024/04/14 05:40:07;;;;;;;6.43;2.30;;;16.30;99.90;;;;;;5256965;27;20522;-60
2024/04/14 05:42:33;;;;;;;4.70;2.17;;;16.20;99.90;;;;;;5257331;27;20244;-59
2024/04/14 05:44:58;;;;;;;8.27;2.13;;;16.30;99.90;;;;;;5246589;27;20462;-60
2024/04/14 05:47:24;;;;;;;3.13;1.97;;;16.20;99.90;;;;;;5261167;27;20374;-60
2024/04/14 05:49:51;;;;;;;5.23;2.87;;;16.20;99.90;;;;;;5258844;27;20607;-59
2024/04/14 05:52:16;;;;;;;2.80;2.20;;;16.20;99.90;;;;;;5260618;27;20317;-59
2024/04/14 05:54:42;;;;;;;2.53;1.90;;;16.20;99.90;;;;;;5256307;27;20464;-61
2024/04/14 05:57:07;;;;;;;4.20;2.60;;;16.10;99.90;;;;;;5247489;27;20290;-60
2024/04/14 05:59:33;;;;;;;4.47;2.50;;;16.20;99.90;;;;;;5268646;27;20281;-58
2024/04/14 06:01:59;;;;;;;5.53;3.30;;;16.20;99.90;;;;;;5258174;27;20339;-59
2024/04/14 06:04:24;;;;;;;4.20;2.70;;;16.30;99.90;;;;;;5243918;27;20381;-59
2024/04/14 06:06:50;;;;;;;2.90;2.30;;;16.50;99.90;;;;;;5252246;27;20268;-59
2024/04/14 06:09:16;;;;;;;2.77;1.80;;;16.60;99.90;;;;;;5268896;27;20271;-58
2024/04/14 06:11:41;;;;;;;3.40;2.83;;;16.70;99.90;;;;;;5271283;27;20455;-59
2024/04/14 06:14:07;;;;;;;2.43;2.03;;;16.80;99.90;;;;;;5257927;27;20271;-59
2024/04/14 06:16:32;;;;;;;2.70;2.50;;;17.10;99.90;;;;;;5270473;27;20373;-59
2024/04/14 06:18:58;;;;;;;4.17;2.87;;;17.00;99.90;;;;;;5270941;27;20232;-60
2024/04/14 06:21:24;;;;;;;4.00;1.97;;;17.00;99.90;;;;;;5269181;27;20406;-59
2024/04/14 06:23:49;;;;;;;2.40;2.20;;;16.60;99.90;;;;;;5269118;27;20260;-59
2024/04/14 06:26:15;;;;;;;3.20;2.20;;;16.90;99.90;;;;;;5269674;27;20242;-60
2024/04/14 06:28:40;;;;;;;4.60;3.27;;;16.80;99.90;;;;;;5270470;27;20329;-60
2024/04/14 06:31:06;;;;;;;5.03;2.60;;;16.80;99.90;;;;;;5272153;27;20303;-59
2024/04/14 06:33:31;;;;;;;3.60;2.50;;;16.60;99.90;;;;;;5273431;27;20220;-57
2024/04/14 06:35:57;;;;;;;3.13;2.40;;;17.10;99.90;;;;;;5265468;27;20271;-60
2024/04/14 06:38:23;;;;;;;5.10;2.13;;;17.50;99.90;;;;;;5265187;27;20636;-59
2024/04/14 06:40:49;;;;;;;3.70;1.93;;;17.30;99.90;;;;;;5269047;27;20221;-60
2024/04/14 06:43:16;;;;;;;2.40;1.83;;;17.10;99.90;;;;;;5259014;27;20509;-60
2024/04/14 06:45:41;;;;;;;6.00;2.00;;;17.10;99.90;;;;;;5269017;27;20229;-60
2024/04/14 06:48:07;;;;;;;3.90;2.43;;;17.10;99.90;;;;;;5266565;27;20759;-58
2024/04/14 06:50:33;;;;;;;5.63;2.17;;;17.50;99.90;;;;;;5257904;27;20466;-61
2024/04/14 06:52:59;;;;;;;4.23;2.30;;;17.00;99.90;;;;;;5237011;27;20307;-59
2024/04/14 06:55:25;;;;;;;5.20;2.17;;;17.00;99.90;;;;;;5252420;27;20470;-60
2024/04/14 06:57:51;;;;;;;3.57;2.10;;;17.10;99.90;;;;;;5255407;27;20918;-59
2024/04/14 07:00:17;;;;;;;3.83;1.87;;;17.30;99.90;;;;;;5251259;27;20459;-59
2024/04/14 07:02:42;;;;;;;5.80;2.20;;;17.40;99.90;;;;;;5264554;27;20368;-59
2024/04/14 07:05:08;;;;;;;5.07;2.30;;;18.00;99.90;;;;;;5235516;27;20238;-59
2024/04/14 07:07:33;;;;;;;5.33;2.37;;;17.90;99.90;;;;;;5256974;27;20233;-61
2024/04/14 07:09:59;;;;;;;5.10;2.60;;;17.70;99.90;;;;;;5265912;27;20268;-60
2024/04/14 07:12:25;;;;;;;3.97;2.17;;;17.60;99.90;;;;;;5258118;27;20812;-58
2024/04/14 07:14:50;;;;;;;5.10;3.33;;;17.10;99.90;;;;;;5254394;27;20241;-60
2024/04/14 07:17:16;;;;;;;3.70;2.70;;;17.00;99.90;;;;;;5264849;27;20234;-60
2024/04/14 07:19:41;;;;;;;3.17;2.20;;;16.90;99.90;;;;;;5271341;27;20271;-59
2024/04/14 07:22:07;;;;;;;3.77;2.23;;;17.20;99.90;;;;;;5273347;27;20233;-59
2024/04/14 07:24:33;;;;;;;3.97;2.10;;;17.10;99.90;;;;;;5273190;27;20256;-61
2024/04/14 07:26:58;;;;;;;4.93;1.97;;;17.40;99.90;;;;;;5273011;27;20229;-60
2024/04/14 07:29:24;;;;;;;3.30;2.20;;;17.70;99.90;;;;;;5272505;27;20936;-61
2024/04/14 07:31:50;;;;;;;9.57;1.80;;;17.80;99.90;;;;;;5256176;27;20733;-61
2024/04/14 07:34:16;;;;;;;4.83;1.90;;;17.90;99.90;;;;;;5265608;27;20271;-60
2024/04/14 07:36:43;;;;;;;3.70;2.30;;;18.00;99.90;;;;;;5245195;27;20790;-61
2024/04/14 07:39:09;;;;;;;2.80;2.00;;;17.90;99.90;;;;;;5261769;27;20598;-60
2024/04/14 07:41:34;;;;;;;5.73;2.17;;;17.50;99.90;;;;;;5264850;27;20472;-60
2024/04/14 07:44:00;;;;;;;3.87;2.17;;;17.20;99.90;;;;;;5247496;27;20235;-59
2024/04/14 07:46:27;;;;;;;2.60;1.60;;;17.10;99.90;;;;;;5260081;27;20240;-65
2024/04/14 07:48:53;;;;;;;5.40;1.80;;;17.60;99.90;;;;;;5253506;27;20273;-62
2024/04/14 07:51:18;;;;;;;5.57;2.00;;;17.50;99.90;;;;;;5262575;27;20463;-58
2024/04/14 07:53:46;;;;;;;4.20;2.10;;;17.30;99.90;;;;;;5270960;27;20223;-59
2024/04/14 07:56:11;;;;;;;5.60;1.60;;;17.20;99.90;;;;;;5271069;27;20258;-59
2024/04/14 07:58:37;;;;;;;6.30;1.97;;;17.50;99.90;;;;;;5271679;27;20451;-58
2024/04/14 08:01:04;;;;;;;2.80;1.67;;;17.80;99.90;;;;;;5271172;27;20237;-57
2024/04/14 08:03:30;;;;;;;4.03;2.00;;;17.40;99.90;;;;;;5269887;27;20231;-59
2024/04/14 08:05:55;;;;;;;2.83;2.40;;;17.50;99.90;;;;;;5253134;27;20527;-59
2024/04/14 08:08:21;;;;;;;3.53;1.63;;;17.30;99.90;;;;;;5266784;27;20268;-60
2024/04/14 08:10:46;;;;;;;2.63;1.60;;;17.20;99.90;;;;;;5270665;27;20351;-59
2024/04/14 08:13:12;;;;;;;4.00;1.47;;;17.10;99.90;;;;;;5274533;27;20724;-59
2024/04/14 08:15:39;;;;;;;6.60;2.00;;;16.90;99.90;;;;;;5272139;27;20234;-59
2024/04/14 08:18:05;;;;;;;3.97;1.77;;;16.80;99.90;;;;;;5273013;27;20523;-58
2024/04/14 08:20:31;;;;;;;2.03;1.53;;;16.60;99.90;;;;;;5274917;27;20529;-57
2024/04/14 08:22:56;;;;;;;4.43;1.90;;;16.80;99.90;;;;;;5265482;27;20384;-59
2024/04/14 08:25:22;;;;;;;4.57;2.00;;;16.70;99.90;;;;;;5265836;27;20254;-59
2024/04/14 08:27:47;;;;;;;3.90;2.00;;;16.60;99.90;;;;;;5271404;27;20661;-59
2024/04/14 08:30:13;;;;;;;6.17;1.60;;;16.60;99.90;;;;;;5272398;27;20329;-59
2024/04/14 08:32:39;;;;;;;2.93;1.37;;;16.90;99.90;;;;;;5274644;27;20233;-59
2024/04/14 08:35:05;;;;;;;1.30;1.10;;;16.80;99.90;;;;;;5274961;27;20224;-57
2024/04/14 08:37:31;;;;;;;3.47;1.30;;;16.60;99.90;;;;;;5267779;27;20242;-56
2024/04/14 08:39:56;;;;;;;3.00;1.60;;;16.90;99.90;;;;;;5275753;27;20940;-59
2024/04/14 08:42:22;;;;;;;4.23;1.37;;;17.10;96.90;;;;;;5254158;27;20277;-59
2024/04/14 08:44:49;;;;;;;3.23;1.50;;;16.90;98.60;;;;;;5264248;27;20227;-60
2024/04/14 08:47:20;;;;;;;3.43;1.67;;;17.10;97.70;;;;;;5264311;27;20769;-59
2024/04/14 08:49:46;;;;;;;1.53;1.27;;;17.50;98.00;;;;;;5256011;27;20459;-60
2024/04/14 08:52:15;;;;;;;4.80;1.40;;;17.60;94.50;;;;;;5261464;27;20464;-60
2024/04/14 08:54:40;;;;;;;0.93;0.83;;;17.30;92.90;;;;;;5245371;27;20296;-60
2024/04/14 08:57:08;;;;;;;2.87;1.33;;;17.30;90.10;;;;;;5267876;27;20592;-60
2024/04/14 08:59:37;;;;;;;6.07;1.20;;;17.50;91.30;;;;;;5272566;27;20268;-60
2024/04/14 09:02:03;;;;;;;3.83;0.90;;;18.20;89.00;;;;;;5274243;27;20530;-67
2024/04/14 09:04:29;;;;;;;1.63;0.80;;;17.40;87.70;;;;;;5270663;27;21002;-60
2024/04/14 09:06:54;;;;;;;2.47;1.00;;;17.90;90.70;;;;;;5273612;27;20234;-60
2024/04/14 09:09:20;;;;;;;3.93;1.10;;;18.20;86.10;;;;;;5268966;27;20519;-59
2024/04/14 09:11:56;;;;;;;2.90;1.00;;;18.20;84.80;;;;;;5258664;27;20631;-60
2024/04/14 09:14:22;;;;;;;1.57;0.90;;;18.60;87.60;;;;;;5262848;27;20681;-60
2024/04/14 09:16:49;;;;;;;2.13;1.13;;;19.10;85.50;;;;;;5255434;27;20537;-60
2024/04/14 09:19:17;;;;;;;1.53;0.80;;;18.70;83.10;;;;;;5263839;27;20568;-60
2024/04/14 09:21:43;;;;;;;1.10;1.00;;;18.90;86.40;;;;;;5265446;27;20620;-67
2024/04/14 09:24:09;;;;;;;106.13;60.70;;;18.70;79.60;;;;;;5265805;27;20454;-60
2024/04/14 09:26:34;;;;;;;2.83;1.90;;;19.10;76.00;;;;;;5256919;27;20287;-64
2024/04/14 09:29:04;;;;;;;1.20;0.83;;;18.90;72.60;;;;;;5268165;27;20224;-59
2024/04/14 09:31:29;;;;;;;1.20;0.87;;;18.70;73.50;;;;;;5250030;27;20239;-58
2024/04/14 09:33:56;;;;;;;1.80;0.97;;;18.40;72.00;;;;;;5263906;27;20580;-60
2024/04/14 09:36:25;;;;;;;2.50;1.10;;;18.10;72.00;;;;;;5262739;27;20390;-60
2024/04/14 09:38:54;;;;;;;2.23;0.97;;;18.20;72.00;;;;;;5261899;27;20610;-59
2024/04/14 09:41:21;;;;;;;2.40;1.20;;;18.10;74.00;;;;;;5263926;27;20629;-59
2024/04/14 09:43:49;;;;;;;2.27;1.20;;;17.90;76.10;;;;;;5261080;27;20476;-60
2024/04/14 09:46:14;;;;;;;3.30;1.40;;;17.30;75.60;;;;;;5269914;27;20538;-60
2024/04/14 09:48:42;;;;;;;5.47;1.40;;;17.20;78.70;;;;;;5260519;27;20479;-58
2024/04/14 09:51:09;;;;;;;2.23;1.40;;;16.90;80.80;;;;;;5268510;27;20723;-58
2024/04/14 09:53:35;;;;;;;6.13;1.40;;;17.30;80.70;;;;;;5265530;27;20481;-59
2024/04/14 09:56:02;;;;;;;4.80;1.17;;;16.90;83.00;;;;;;5272100;27;20466;-60
2024/04/14 09:58:28;;;;;;;5.43;1.93;;;17.40;84.80;;;;;;5273723;27;20452;-58
2024/04/14 10:00:57;;;;;;;6.10;1.70;;;17.10;83.70;;;;;;5273991;27;20533;-60
2024/04/14 10:03:25;;;;;;;6.50;1.20;;;17.20;86.40;;;;;;5273947;27;20341;-60
2024/04/14 10:05:51;;;;;;;2.83;1.53;;;17.80;84.20;;;;;;5273708;27;20588;-67
2024/04/14 10:08:18;;;;;;;3.13;1.50;;;18.00;79.60;;;;;;5252664;27;20461;-60
2024/04/14 10:10:43;;;;;;;2.43;1.10;;;17.50;81.90;;;;;;5258099;27;20468;-59
2024/04/14 10:13:09;;;;;;;2.67;1.27;;;17.70;83.10;;;;;;5267827;27;20822;-60
2024/04/14 10:15:38;;;;;;;2.20;1.03;;;18.00;80.70;;;;;;5250533;27;20246;-61
2024/04/14 10:18:17;;;;;;;3.33;1.93;;;18.30;76.40;;;;;;5270639;27;20468;-60
2024/04/14 10:20:44;;;;;;;5.27;1.23;;;18.40;74.20;;;;;;5266470;27;21051;-60
2024/04/14 10:23:15;;;;;;;2.00;1.13;;;18.30;72.90;;;;;;5273156;27;20602;-61
2024/04/14 10:25:47;;;;;;;11.50;1.80;;;18.20;75.50;;;;;;5273454;27;20469;-61
2024/04/14 10:28:20;;;;;;;2.80;1.50;;;18.10;76.80;;;;;;5273095;27;20471;-61
2024/04/14 10:30:49;;;;;;;5.93;1.47;;;18.30;75.30;;;;;;5272282;27;20541;-61
2024/04/14 10:33:23;;;;;;;2.77;1.43;;;18.00;71.20;;;;;;5272712;27;20536;-61
2024/04/14 10:36:09;;;;;;;1.10;1.00;;;17.50;68.10;;;;;;5249713;27;20535;-60
2024/04/14 10:38:36;;;;;;;3.30;1.00;;;17.50;67.20;;;;;;5255042;27;20525;-58
2024/04/14 10:41:02;;;;;;;2.50;1.20;;;17.50;61.20;;;;;;5259449;27;20840;-59
2024/04/14 10:43:28;;;;;;;3.93;1.27;;;17.90;57.20;;;;;;5270028;27;20606;-60
2024/04/14 10:45:58;;;;;;;1.87;0.97;;;17.50;57.90;;;;;;5269823;27;20486;-60
2024/04/14 10:48:23;;;;;;;1.33;1.17;;;17.50;57.50;;;;;;5270133;27;20749;-60
2024/04/14 10:50:49;;;;;;;1.30;1.10;;;17.30;56.00;;;;;;5252882;27;20569;-58
2024/04/14 10:53:15;;;;;;;2.60;1.10;;;17.20;56.80;;;;;;5262989;27;20367;-60
2024/04/14 10:55:40;;;;;;;3.27;1.73;;;17.20;54.10;;;;;;5250427;27;20656;-58
2024/04/14 10:58:06;;;;;;;2.00;1.17;;;17.40;51.10;;;;;;5270377;27;20373;-60
2024/04/14 11:00:31;;;;;;;2.13;1.20;;;17.50;51.40;;;;;;5272665;27;20222;-60
2024/04/14 11:02:58;;;;;;;1.30;1.10;;;17.10;53.70;;;;;;5273001;27;20370;-61
2024/04/14 11:05:25;;;;;;;4.17;1.27;;;17.10;57.50;;;;;;5271207;27;20336;-60
2024/04/14 11:07:51;;;;;;;2.27;1.30;;;17.00;58.40;;;;;;5273021;27;20505;-60
2024/04/14 11:10:19;;;;;;;2.23;1.03;;;16.80;58.70;;;;;;5258170;27;20563;-59
2024/04/14 11:12:45;;;;;;;2.83;1.10;;;17.10;58.90;;;;;;5261105;27;20848;-61
2024/04/14 11:15:11;;;;;;;4.47;1.63;;;17.30;57.10;;;;;;5268894;27;20986;-60
2024/04/14 11:17:36;;;;;;;1.23;1.00;;;16.60;60.50;;;;;;5270881;27;20528;-59
2024/04/14 11:20:02;;;;;;;3.77;1.10;;;17.20;59.80;;;;;;5271011;27;20228;-57
2024/04/14 11:22:30;;;;;;;2.30;1.17;;;17.30;58.60;;;;;;5272203;27;20234;-61
2024/04/14 11:24:58;;;;;;;3.37;1.47;;;16.70;55.60;;;;;;5272596;27;20621;-58
2024/04/14 11:27:24;;;;;;;4.20;1.03;;;16.50;55.10;;;;;;5272169;27;20523;-61
2024/04/14 11:29:50;;;;;;;3.03;2.07;;;17.10;54.90;;;;;;5272715;27;21142;-60
2024/04/14 11:32:32;;;;;;;2.03;1.00;;;17.40;55.00;;;;;;5265244;27;20456;-60
2024/04/14 11:35:00;;;;;;;3.83;0.97;;;17.60;55.10;;;;;;5254976;27;20331;-60
2024/04/14 11:37:32;;;;;;;2.50;1.00;;;17.50;55.00;;;;;;5256653;27;21109;-60
2024/04/14 11:39:58;;;;;;;1.63;0.90;;;17.30;54.40;;;;;;5259641;27;20456;-59
2024/04/14 11:42:25;;;;;;;3.43;1.60;;;17.30;51.90;;;;;;5261901;27;20650;-60
2024/04/14 11:44:51;;;;;;;2.20;1.17;;;17.30;52.10;;;;;;5261442;27;20472;-60
2024/04/14 11:47:17;;;;;;;1.23;1.13;;;17.20;50.70;;;;;;5236073;27;20545;-60
2024/04/14 11:49:43;;;;;;;5.90;1.50;;;16.90;49.80;;;;;;5259354;27;20229;-60
2024/04/14 11:52:09;;;;;;;2.00;1.40;;;17.20;51.10;;;;;;5238056;27;20475;-60
2024/04/14 11:54:34;;;;;;;1.83;1.30;;;17.60;50.70;;;;;;5255382;27;20229;-60
2024/04/14 11:57:00;;;;;;;1.27;1.10;;;17.50;49.10;;;;;;5268530;27;20229;-61
2024/04/14 11:59:25;;;;;;;4.17;1.30;;;17.80;49.40;;;;;;5272579;27;20231;-58
2024/04/14 12:01:53;;;;;;;3.43;1.57;;;18.00;49.50;;;;;;5272243;27;20569;-62
2024/04/14 12:04:18;;;;;;;2.00;1.13;;;17.70;51.00;;;;;;5272686;27;21000;-58
2024/04/14 12:06:44;;;;;;;4.60;1.77;;;18.30;50.90;;;;;;5272628;27;20541;-60
2024/04/14 12:09:09;;;;;;;5.37;1.00;;;18.60;49.60;;;;;;5271938;27;20278;-60
2024/04/14 12:11:35;;;;;;;2.17;0.93;;;17.60;46.90;;;;;;5266466;27;20226;-59
2024/04/14 12:14:01;;;;;;;2.90;1.10;;;17.50;47.50;;;;;;5269094;27;20372;-59
2024/04/14 12:16:26;;;;;;;2.30;1.00;;;17.70;47.30;;;;;;5262316;27;20232;-63
2024/04/14 12:18:52;;;;;;;1.77;1.00;;;17.70;47.40;;;;;;5248305;27;20578;-61
2024/04/14 12:21:18;;;;;;;7.97;1.07;;;17.70;47.40;;;;;;5249175;27;20234;-60
2024/04/14 12:23:44;;;;;;;1.97;0.87;;;18.00;45.70;;;;;;5266641;27;20589;-60
2024/04/14 12:26:10;;;;;;;1.60;1.33;;;17.60;39.50;;;;;;5267572;27;20537;-61
2024/04/14 12:28:35;;;;;;;3.67;1.63;;;17.50;44.20;;;;;;5268585;27;20277;-60
2024/04/14 12:31:01;;;;;;;1.83;1.00;;;17.90;46.50;;;;;;5270395;27;20336;-59
2024/04/14 12:33:26;;;;;;;1.80;0.90;;;18.00;43.40;;;;;;5270975;27;20309;-60
2024/04/14 12:35:52;;;;;;;1.37;0.80;;;17.90;39.30;;;;;;5271133;27;20276;-59
2024/04/14 12:38:18;;;;;;;2.93;1.23;;;17.80;38.10;;;;;;5254018;27;20736;-59
2024/04/14 12:40:44;;;;;;;2.67;1.13;;;17.90;39.30;;;;;;5263832;27;20251;-58